Main page
METAR-TAF:

METAR-TAF

Airports :

Dar es Salaam, Tanzania

Julius Nyerere International Airport

latitude: 06-52S, longitude: 039-12E, elevation: 55 m

Current weather observation

The report was made 2 hours and 9 minutes ago, at 17:00 UTC
Wind 15 kt from the North
Temperature 27°C
Humidity 84%
Pressure 1009 hPa
Visibility 10 km or more
Broken clouds at a height of 1500 ft

METAR: HTDA 191700Z 01015KT 9999 BKN015 27/24 Q1009 NOSIG

Time: 22:09 (19:09 UTC)

Forecast

The report was made 2 hours and 9 minutes ago, at 17:00 UTC
Forecast valid from 19 at 18 UTC to 20 at 24 UTC
Wind 15 kt from the North
Visibility 10 km or more
Broken clouds at a height of 1700 ft

TAF: HTDA 191700Z 1918/2024 36015KT 9999 BKN017

Weather observations and forecasts of more than 4000 airports (METAR and TAF reports).

The available stations are represented by yellow and red dots on the map.

Hover mouse over dot to see the name of the station.

Then click to see weather observations and forecasts.

To change the map : click on the green buttons with a black cross to zoom in, on the green button with a dash to zoom out, or on the green arrows for adjacent maps.


METAR-TAF: